sensor_id;sensor_type;location;lat;lon;timestamp;temperature;humidity
67196;DHT22;54122;53.538;49.366;2023-10-19T00:00:56;8.00;80.40
67196;DHT22;54122;53.538;49.366;2023-10-19T00:03:24;8.10;80.40
67196;DHT22;54122;53.538;49.366;2023-10-19T00:05:50;8.00;80.30
67196;DHT22;54122;53.538;49.366;2023-10-19T00:08:16;8.00;80.50
67196;DHT22;54122;53.538;49.366;2023-10-19T00:10:51;7.90;80.60
67196;DHT22;54122;53.538;49.366;2023-10-19T00:13:28;7.90;80.70
67196;DHT22;54122;53.538;49.366;2023-10-19T00:15:55;7.80;80.80
67196;DHT22;54122;53.538;49.366;2023-10-19T00:18:24;7.80;80.90
67196;DHT22;54122;53.538;49.366;2023-10-19T00:20:52;7.70;80.90
67196;DHT22;54122;53.538;49.366;2023-10-19T00:23:20;7.70;81.00
67196;DHT22;54122;53.538;49.366;2023-10-19T00:26:03;7.70;81.10
67196;DHT22;54122;53.538;49.366;2023-10-19T00:28:41;7.70;80.90
67196;DHT22;54122;53.538;49.366;2023-10-19T00:31:07;7.60;80.90
67196;DHT22;54122;53.538;49.366;2023-10-19T00:33:37;7.60;80.90
67196;DHT22;54122;53.538;49.366;2023-10-19T00:36:10;7.60;80.80
67196;DHT22;54122;53.538;49.366;2023-10-19T00:38:39;7.60;80.70
67196;DHT22;54122;53.538;49.366;2023-10-19T00:41:07;7.50;80.70
67196;DHT22;54122;53.538;49.366;2023-10-19T00:43:41;7.50;80.80
67196;DHT22;54122;53.538;49.366;2023-10-19T00:48:49;7.50;81.20
67196;DHT22;54122;53.538;49.366;2023-10-19T00:51:19;7.50;81.10
67196;DHT22;54122;53.538;49.366;2023-10-19T00:53:54;7.40;81.10
67196;DHT22;54122;53.538;49.366;2023-10-19T00:56:23;7.40;81.30
67196;DHT22;54122;53.538;49.366;2023-10-19T00:58:52;7.30;81.40
67196;DHT22;54122;53.538;49.366;2023-10-19T01:01:23;7.30;81.60
67196;DHT22;54122;53.538;49.366;2023-10-19T01:03:55;7.40;81.60
67196;DHT22;54122;53.538;49.366;2023-10-19T01:06:25;7.50;81.40
67196;DHT22;54122;53.538;49.366;2023-10-19T01:08:54;7.50;82.00
67196;DHT22;54122;53.538;49.366;2023-10-19T01:11:21;7.60;80.80
67196;DHT22;54122;53.538;49.366;2023-10-19T01:13:48;7.70;80.50
67196;DHT22;54122;53.538;49.366;2023-10-19T01:16:15;7.70;80.10
67196;DHT22;54122;53.538;49.366;2023-10-19T01:18:48;7.80;79.80
67196;DHT22;54122;53.538;49.366;2023-10-19T01:21:16;7.80;79.60
67196;DHT22;54122;53.538;49.366;2023-10-19T01:23:47;7.80;79.40
67196;DHT22;54122;53.538;49.366;2023-10-19T01:26:14;7.80;79.20
67196;DHT22;54122;53.538;49.366;2023-10-19T01:28:48;7.80;79.20
67196;DHT22;54122;53.538;49.366;2023-10-19T01:31:16;7.70;79.20
67196;DHT22;54122;53.538;49.366;2023-10-19T01:33:48;7.60;80.30
67196;DHT22;54122;53.538;49.366;2023-10-19T01:36:14;7.60;79.40
67196;DHT22;54122;53.538;49.366;2023-10-19T01:38:55;7.50;79.40
67196;DHT22;54122;53.538;49.366;2023-10-19T01:41:23;7.40;79.50
67196;DHT22;54122;53.538;49.366;2023-10-19T01:43:52;7.30;79.60
67196;DHT22;54122;53.538;49.366;2023-10-19T01:46:23;7.20;80.10
67196;DHT22;54122;53.538;49.366;2023-10-19T01:48:55;7.10;80.30
67196;DHT22;54122;53.538;49.366;2023-10-19T01:51:23;7.00;80.70
67196;DHT22;54122;53.538;49.366;2023-10-19T01:53:50;6.90;80.80
67196;DHT22;54122;53.538;49.366;2023-10-19T01:56:17;6.90;81.00
67196;DHT22;54122;53.538;49.366;2023-10-19T01:58:45;7.00;81.00
67196;DHT22;54122;53.538;49.366;2023-10-19T02:01:16;7.00;80.80
67196;DHT22;54122;53.538;49.366;2023-10-19T02:03:55;6.90;80.80
67196;DHT22;54122;53.538;49.366;2023-10-19T02:06:26;6.90;80.60
67196;DHT22;54122;53.538;49.366;2023-10-19T02:09:03;6.80;80.70
67196;DHT22;54122;53.538;49.366;2023-10-19T02:11:35;6.80;80.90
67196;DHT22;54122;53.538;49.366;2023-10-19T02:14:08;6.70;81.00
67196;DHT22;54122;53.538;49.366;2023-10-19T02:16:54;6.70;81.10
67196;DHT22;54122;53.538;49.366;2023-10-19T02:19:26;6.60;81.40
67196;DHT22;54122;53.538;49.366;2023-10-19T02:21:56;6.60;81.60
67196;DHT22;54122;53.538;49.366;2023-10-19T02:24:23;6.60;81.60
67196;DHT22;54122;53.538;49.366;2023-10-19T02:26:53;6.60;81.60
67196;DHT22;54122;53.538;49.366;2023-10-19T02:29:19;6.60;81.60
67196;DHT22;54122;53.538;49.366;2023-10-19T02:31:45;6.60;81.50
67196;DHT22;54122;53.538;49.366;2023-10-19T02:34:13;6.60;81.50
67196;DHT22;54122;53.538;49.366;2023-10-19T02:36:44;6.60;81.50
67196;DHT22;54122;53.538;49.366;2023-10-19T02:39:12;6.70;81.60
67196;DHT22;54122;53.538;49.366;2023-10-19T02:41:45;6.70;81.40
67196;DHT22;54122;53.538;49.366;2023-10-19T02:44:20;6.80;81.30
67196;DHT22;54122;53.538;49.366;2023-10-19T02:46:55;6.80;81.20
67196;DHT22;54122;53.538;49.366;2023-10-19T02:49:25;6.80;81.10
67196;DHT22;54122;53.538;49.366;2023-10-19T02:51:52;6.80;81.10
67196;DHT22;54122;53.538;49.366;2023-10-19T02:54:23;6.80;80.90
67196;DHT22;54122;53.538;49.366;2023-10-19T02:56:55;6.90;80.90
67196;DHT22;54122;53.538;49.366;2023-10-19T02:59:27;6.90;80.90
67196;DHT22;54122;53.538;49.366;2023-10-19T03:01:59;6.80;81.10
67196;DHT22;54122;53.538;49.366;2023-10-19T03:04:33;6.80;81.20
67196;DHT22;54122;53.538;49.366;2023-10-19T03:07:05;6.70;81.40
67196;DHT22;54122;53.538;49.366;2023-10-19T03:09:31;6.80;81.40
67196;DHT22;54122;53.538;49.366;2023-10-19T03:12:02;6.70;81.40
67196;DHT22;54122;53.538;49.366;2023-10-19T03:14:30;6.70;81.50
67196;DHT22;54122;53.538;49.366;2023-10-19T03:16:57;6.70;81.40
67196;DHT22;54122;53.538;49.366;2023-10-19T03:19:25;6.80;81.30
67196;DHT22;54122;53.538;49.366;2023-10-19T03:21:52;6.80;80.90
67196;DHT22;54122;53.538;49.366;2023-10-19T03:24:19;6.80;80.60
67196;DHT22;54122;53.538;49.366;2023-10-19T03:27:09;6.80;80.50
67196;DHT22;54122;53.538;49.366;2023-10-19T03:29:42;6.90;80.20
67196;DHT22;54122;53.538;49.366;2023-10-19T03:32:12;6.90;79.90
67196;DHT22;54122;53.538;49.366;2023-10-19T03:34:39;7.00;79.70
67196;DHT22;54122;53.538;49.366;2023-10-19T03:37:09;7.00;79.60
67196;DHT22;54122;53.538;49.366;2023-10-19T03:39:38;7.00;79.60
67196;DHT22;54122;53.538;49.366;2023-10-19T03:42:05;7.00;79.60
67196;DHT22;54122;53.538;49.366;2023-10-19T03:44:35;7.00;79.70
67196;DHT22;54122;53.538;49.366;2023-10-19T03:47:13;7.00;79.70
67196;DHT22;54122;53.538;49.366;2023-10-19T03:49:45;7.00;79.50
67196;DHT22;54122;53.538;49.366;2023-10-19T03:52:13;7.10;79.50
67196;DHT22;54122;53.538;49.366;2023-10-19T03:54:40;7.10;79.30
67196;DHT22;54122;53.538;49.366;2023-10-19T03:57:17;7.20;80.10
67196;DHT22;54122;53.538;49.366;2023-10-19T03:59:56;7.20;78.90
67196;DHT22;54122;53.538;49.366;2023-10-19T04:02:24;7.20;78.80
67196;DHT22;54122;53.538;49.366;2023-10-19T04:04:50;7.20;78.80
67196;DHT22;54122;53.538;49.366;2023-10-19T04:07:19;7.20;78.70
67196;DHT22;54122;53.538;49.366;2023-10-19T04:09:49;7.20;78.70
67196;DHT22;54122;53.538;49.366;2023-10-19T04:12:39;7.30;78.60
67196;DHT22;54122;53.538;49.366;2023-10-19T04:15:10;7.30;78.40
67196;DHT22;54122;53.538;49.366;2023-10-19T04:17:40;7.40;78.30
67196;DHT22;54122;53.538;49.366;2023-10-19T04:20:09;7.30;78.10
67196;DHT22;54122;53.538;49.366;2023-10-19T04:22:54;7.30;77.80
67196;DHT22;54122;53.538;49.366;2023-10-19T04:25:21;7.30;77.90
67196;DHT22;54122;53.538;49.366;2023-10-19T04:27:51;7.40;77.80
67196;DHT22;54122;53.538;49.366;2023-10-19T04:30:18;7.40;77.80
67196;DHT22;54122;53.538;49.366;2023-10-19T04:32:51;7.40;77.60
67196;DHT22;54122;53.538;49.366;2023-10-19T04:35:18;7.40;77.40
67196;DHT22;54122;53.538;49.366;2023-10-19T04:37:51;7.50;77.30
67196;DHT22;54122;53.538;49.366;2023-10-19T04:40:22;7.50;77.00
67196;DHT22;54122;53.538;49.366;2023-10-19T04:42:51;7.60;76.80
67196;DHT22;54122;53.538;49.366;2023-10-19T04:45:18;7.60;76.80
67196;DHT22;54122;53.538;49.366;2023-10-19T04:47:44;7.70;76.70
67196;DHT22;54122;53.538;49.366;2023-10-19T04:50:12;7.80;76.30
67196;DHT22;54122;53.538;49.366;2023-10-19T04:52:39;7.80;76.00
67196;DHT22;54122;53.538;49.366;2023-10-19T04:55:06;7.90;75.70
67196;DHT22;54122;53.538;49.366;2023-10-19T04:57:32;8.00;75.40
67196;DHT22;54122;53.538;49.366;2023-10-19T04:59:58;8.00;75.20
67196;DHT22;54122;53.538;49.366;2023-10-19T05:02:25;8.10;74.90
67196;DHT22;54122;53.538;49.366;2023-10-19T05:04:51;8.10;75.50
67196;DHT22;54122;53.538;49.366;2023-10-19T05:07:18;8.20;74.40
67196;DHT22;54122;53.538;49.366;2023-10-19T05:09:45;8.50;74.80
67196;DHT22;54122;53.538;49.366;2023-10-19T05:12:13;8.90;73.70
67196;DHT22;54122;53.538;49.366;2023-10-19T05:14:41;9.10;72.40
67196;DHT22;54122;53.538;49.366;2023-10-19T05:17:08;9.50;72.30
67196;DHT22;54122;53.538;49.366;2023-10-19T05:19:36;10.10;70.70
67196;DHT22;54122;53.538;49.366;2023-10-19T05:22:05;10.70;68.40
67196;DHT22;54122;53.538;49.366;2023-10-19T05:24:32;11.10;66.60
67196;DHT22;54122;53.538;49.366;2023-10-19T05:26:58;11.20;63.90
67196;DHT22;54122;53.538;49.366;2023-10-19T05:29:24;11.30;64.10
67196;DHT22;54122;53.538;49.366;2023-10-19T05:31:51;11.50;63.60
67196;DHT22;54122;53.538;49.366;2023-10-19T05:34:24;11.70;62.90
67196;DHT22;54122;53.538;49.366;2023-10-19T05:36:52;11.60;61.40
67196;DHT22;54122;53.538;49.366;2023-10-19T05:39:20;11.40;62.00
67196;DHT22;54122;53.538;49.366;2023-10-19T05:41:46;11.10;62.40
67196;DHT22;54122;53.538;49.366;2023-10-19T05:44:12;10.90;62.40
67196;DHT22;54122;53.538;49.366;2023-10-19T05:46:39;10.70;63.00
67196;DHT22;54122;53.538;49.366;2023-10-19T05:49:06;10.60;63.50
67196;DHT22;54122;53.538;49.366;2023-10-19T05:51:33;10.60;63.70
67196;DHT22;54122;53.538;49.366;2023-10-19T05:53:59;10.90;63.60
67196;DHT22;54122;53.538;49.366;2023-10-19T05:56:32;11.00;62.00
67196;DHT22;54122;53.538;49.366;2023-10-19T05:59:00;10.80;62.10
67196;DHT22;54122;53.538;49.366;2023-10-19T06:01:27;10.70;62.80
67196;DHT22;54122;53.538;49.366;2023-10-19T06:03:53;10.80;63.00
67196;DHT22;54122;53.538;49.366;2023-10-19T06:06:19;10.80;62.60
67196;DHT22;54122;53.538;49.366;2023-10-19T06:08:46;10.80;62.60
67196;DHT22;54122;53.538;49.366;2023-10-19T06:11:12;11.10;62.30
67196;DHT22;54122;53.538;49.366;2023-10-19T06:13:39;11.40;61.40
67196;DHT22;54122;53.538;49.366;2023-10-19T06:16:05;11.60;60.40
67196;DHT22;54122;53.538;49.366;2023-10-19T06:18:33;11.80;60.20
67196;DHT22;54122;53.538;49.366;2023-10-19T06:20:59;12.00;59.60
67196;DHT22;54122;53.538;49.366;2023-10-19T06:23:25;12.40;59.20
67196;DHT22;54122;53.538;49.366;2023-10-19T06:25:52;12.70;57.20
67196;DHT22;54122;53.538;49.366;2023-10-19T06:28:18;12.90;56.70
67196;DHT22;54122;53.538;49.366;2023-10-19T06:30:44;12.60;55.80
67196;DHT22;54122;53.538;49.366;2023-10-19T06:33:14;12.30;57.00
67196;DHT22;54122;53.538;49.366;2023-10-19T06:35:40;12.00;57.70
67196;DHT22;54122;53.538;49.366;2023-10-19T06:38:07;11.90;58.10
67196;DHT22;54122;53.538;49.366;2023-10-19T06:40:35;11.90;58.50
67196;DHT22;54122;53.538;49.366;2023-10-19T06:43:04;11.90;58.60
67196;DHT22;54122;53.538;49.366;2023-10-19T06:45:33;11.70;58.90
67196;DHT22;54122;53.538;49.366;2023-10-19T06:48:00;11.60;59.30
67196;DHT22;54122;53.538;49.366;2023-10-19T06:50:26;11.40;60.00
67196;DHT22;54122;53.538;49.366;2023-10-19T06:52:52;11.30;60.30
67196;DHT22;54122;53.538;49.366;2023-10-19T06:55:20;11.20;60.80
67196;DHT22;54122;53.538;49.366;2023-10-19T06:57:54;11.10;61.10
67196;DHT22;54122;53.538;49.366;2023-10-19T07:00:23;11.10;61.10
67196;DHT22;54122;53.538;49.366;2023-10-19T07:02:55;11.00;61.50
67196;DHT22;54122;53.538;49.366;2023-10-19T07:05:22;11.00;61.70
67196;DHT22;54122;53.538;49.366;2023-10-19T07:07:56;10.90;62.00
67196;DHT22;54122;53.538;49.366;2023-10-19T07:10:23;10.90;62.10
67196;DHT22;54122;53.538;49.366;2023-10-19T07:12:53;10.90;62.30
67196;DHT22;54122;53.538;49.366;2023-10-19T07:15:20;10.80;62.80
67196;DHT22;54122;53.538;49.366;2023-10-19T07:17:49;10.80;63.20
67196;DHT22;54122;53.538;49.366;2023-10-19T07:20:18;10.80;63.40
67196;DHT22;54122;53.538;49.366;2023-10-19T07:23:05;10.70;63.80
67196;DHT22;54122;53.538;49.366;2023-10-19T07:25:53;10.50;64.80
67196;DHT22;54122;53.538;49.366;2023-10-19T07:28:26;10.30;66.00
67196;DHT22;54122;53.538;49.366;2023-10-19T07:30:55;10.10;67.30
67196;DHT22;54122;53.538;49.366;2023-10-19T07:33:22;9.90;68.60
67196;DHT22;54122;53.538;49.366;2023-10-19T07:36:13;9.80;69.30
67196;DHT22;54122;53.538;49.366;2023-10-19T07:38:40;9.80;69.80
67196;DHT22;54122;53.538;49.366;2023-10-19T07:41:08;9.90;70.00
67196;DHT22;54122;53.538;49.366;2023-10-19T07:43:40;10.10;70.00
67196;DHT22;54122;53.538;49.366;2023-10-19T07:46:07;10.10;70.10
67196;DHT22;54122;53.538;49.366;2023-10-19T07:48:34;10.30;70.60
67196;DHT22;54122;53.538;49.366;2023-10-19T07:51:00;10.60;70.60
67196;DHT22;54122;53.538;49.366;2023-10-19T07:53:27;11.00;69.80
67196;DHT22;54122;53.538;49.366;2023-10-19T07:55:53;11.40;68.60
67196;DHT22;54122;53.538;49.366;2023-10-19T07:58:20;11.50;67.80
67196;DHT22;54122;53.538;49.366;2023-10-19T08:00:46;11.50;67.40
67196;DHT22;54122;53.538;49.366;2023-10-19T08:03:13;11.50;67.70
67196;DHT22;54122;53.538;49.366;2023-10-19T08:05:42;11.80;67.30
67196;DHT22;54122;53.538;49.366;2023-10-19T08:08:08;12.00;65.90
67196;DHT22;54122;53.538;49.366;2023-10-19T08:10:35;11.90;65.60
67196;DHT22;54122;53.538;49.366;2023-10-19T08:13:01;11.80;65.90
67196;DHT22;54122;53.538;49.366;2023-10-19T08:15:28;12.00;66.00
67196;DHT22;54122;53.538;49.366;2023-10-19T08:18:00;12.50;64.50
67196;DHT22;54122;53.538;49.366;2023-10-19T08:20:27;13.00;63.60
67196;DHT22;54122;53.538;49.366;2023-10-19T08:23:03;13.30;63.60
67196;DHT22;54122;53.538;49.366;2023-10-19T08:25:32;13.30;60.80
67196;DHT22;54122;53.538;49.366;2023-10-19T08:28:00;13.20;60.10
67196;DHT22;54122;53.538;49.366;2023-10-19T08:30:27;12.90;60.10
67196;DHT22;54122;53.538;49.366;2023-10-19T08:32:54;12.70;60.60
67196;DHT22;54122;53.538;49.366;2023-10-19T08:35:23;12.40;60.90
67196;DHT22;54122;53.538;49.366;2023-10-19T08:37:53;12.20;61.40
67196;DHT22;54122;53.538;49.366;2023-10-19T08:40:20;12.20;62.00
67196;DHT22;54122;53.538;49.366;2023-10-19T08:42:49;12.60;61.50
67196;DHT22;54122;53.538;49.366;2023-10-19T08:45:16;12.90;60.50
67196;DHT22;54122;53.538;49.366;2023-10-19T08:47:59;13.50;59.10
67196;DHT22;54122;53.538;49.366;2023-10-19T08:50:29;14.10;57.20
67196;DHT22;54122;53.538;49.366;2023-10-19T08:52:57;14.60;53.90
67196;DHT22;54122;53.538;49.366;2023-10-19T08:55:25;14.40;53.20
67196;DHT22;54122;53.538;49.366;2023-10-19T08:57:53;14.30;53.40
67196;DHT22;54122;53.538;49.366;2023-10-19T09:00:20;14.00;53.60
67196;DHT22;54122;53.538;49.366;2023-10-19T09:02:54;13.70;54.20
67196;DHT22;54122;53.538;49.366;2023-10-19T09:05:23;13.20;55.00
67196;DHT22;54122;53.538;49.366;2023-10-19T09:07:55;12.70;57.30
67196;DHT22;54122;53.538;49.366;2023-10-19T09:10:26;12.20;57.40
67196;DHT22;54122;53.538;49.366;2023-10-19T09:13:00;11.90;58.50
67196;DHT22;54122;53.538;49.366;2023-10-19T09:15:31;11.70;59.00
67196;DHT22;54122;53.538;49.366;2023-10-19T09:18:18;11.50;59.30
67196;DHT22;54122;53.538;49.366;2023-10-19T09:20:50;11.50;60.00
67196;DHT22;54122;53.538;49.366;2023-10-19T09:23:23;11.60;60.30
67196;DHT22;54122;53.538;49.366;2023-10-19T09:25:50;11.70;59.60
67196;DHT22;54122;53.538;49.366;2023-10-19T09:28:19;11.90;59.00
67196;DHT22;54122;53.538;49.366;2023-10-19T09:30:46;12.10;59.20
67196;DHT22;54122;53.538;49.366;2023-10-19T09:33:14;12.20;58.70
67196;DHT22;54122;53.538;49.366;2023-10-19T09:35:46;12.30;57.80
67196;DHT22;54122;53.538;49.366;2023-10-19T09:38:15;12.20;57.70
67196;DHT22;54122;53.538;49.366;2023-10-19T09:40:42;12.20;57.50
67196;DHT22;54122;53.538;49.366;2023-10-19T09:43:15;12.10;57.30
67196;DHT22;54122;53.538;49.366;2023-10-19T09:45:42;12.00;57.60
67196;DHT22;54122;53.538;49.366;2023-10-19T09:48:16;11.90;57.20
67196;DHT22;54122;53.538;49.366;2023-10-19T09:50:45;11.90;56.90
67196;DHT22;54122;53.538;49.366;2023-10-19T09:53:14;11.90;57.10
67196;DHT22;54122;53.538;49.366;2023-10-19T09:55:42;11.90;56.90
67196;DHT22;54122;53.538;49.366;2023-10-19T09:58:12;12.10;56.70
67196;DHT22;54122;53.538;49.366;2023-10-19T10:00:47;12.10;56.40
67196;DHT22;54122;53.538;49.366;2023-10-19T10:06:12;12.20;55.80
67196;DHT22;54122;53.538;49.366;2023-10-19T10:08:46;12.30;55.90
67196;DHT22;54122;53.538;49.366;2023-10-19T10:11:24;12.30;55.20
67196;DHT22;54122;53.538;49.366;2023-10-19T10:13:58;12.40;54.90
67196;DHT22;54122;53.538;49.366;2023-10-19T10:16:26;12.40;54.40
67196;DHT22;54122;53.538;49.366;2023-10-19T10:19:00;12.30;54.70
67196;DHT22;54122;53.538;49.366;2023-10-19T10:21:27;12.10;54.80
67196;DHT22;54122;53.538;49.366;2023-10-19T10:23:57;11.90;55.10
67196;DHT22;54122;53.538;49.366;2023-10-19T10:26:25;11.70;55.80
67196;DHT22;54122;53.538;49.366;2023-10-19T10:29:15;11.60;56.20
67196;DHT22;54122;53.538;49.366;2023-10-19T10:31:50;11.60;56.50
67196;DHT22;54122;53.538;49.366;2023-10-19T10:37:53;11.60;56.50
67196;DHT22;54122;53.538;49.366;2023-10-19T10:40:21;11.70;56.40
67196;DHT22;54122;53.538;49.366;2023-10-19T10:43:05;11.80;55.80
67196;DHT22;54122;53.538;49.366;2023-10-19T10:45:31;11.90;55.90
67196;DHT22;54122;53.538;49.366;2023-10-19T10:47:58;11.90;55.80
67196;DHT22;54122;53.538;49.366;2023-10-19T10:50:27;12.00;55.70
67196;DHT22;54122;53.538;49.366;2023-10-19T10:52:56;12.00;55.60
67196;DHT22;54122;53.538;49.366;2023-10-19T10:55:26;12.00;55.20
67196;DHT22;54122;53.538;49.366;2023-10-19T10:57:54;11.90;55.30
67196;DHT22;54122;53.538;49.366;2023-10-19T11:00:21;11.80;55.60
67196;DHT22;54122;53.538;49.366;2023-10-19T11:03:06;11.80;55.80
67196;DHT22;54122;53.538;49.366;2023-10-19T11:05:37;11.70;55.70
67196;DHT22;54122;53.538;49.366;2023-10-19T11:08:12;11.60;55.60
67196;DHT22;54122;53.538;49.366;2023-10-19T11:10:44;11.50;55.70
67196;DHT22;54122;53.538;49.366;2023-10-19T11:13:15;11.40;56.20
67196;DHT22;54122;53.538;49.366;2023-10-19T11:15:53;11.30;56.30
67196;DHT22;54122;53.538;49.366;2023-10-19T11:18:38;11.30;56.40
67196;DHT22;54122;53.538;49.366;2023-10-19T11:21:11;11.20;56.10
67196;DHT22;54122;53.538;49.366;2023-10-19T11:26:10;11.30;56.60
67196;DHT22;54122;53.538;49.366;2023-10-19T11:28:38;11.30;56.40
67196;DHT22;54122;53.538;49.366;2023-10-19T11:31:21;11.20;56.20
67196;DHT22;54122;53.538;49.366;2023-10-19T11:33:51;11.10;56.30
67196;DHT22;54122;53.538;49.366;2023-10-19T11:36:19;11.00;56.50
67196;DHT22;54122;53.538;49.366;2023-10-19T11:38:48;10.90;56.90
67196;DHT22;54122;53.538;49.366;2023-10-19T11:41:15;10.90;57.20
67196;DHT22;54122;53.538;49.366;2023-10-19T11:43:46;10.80;57.50
67196;DHT22;54122;53.538;49.366;2023-10-19T11:46:14;10.80;57.60
67196;DHT22;54122;53.538;49.366;2023-10-19T11:48:41;10.70;57.30
67196;DHT22;54122;53.538;49.366;2023-10-19T11:51:10;10.70;57.50
67196;DHT22;54122;53.538;49.366;2023-10-19T11:53:41;10.60;57.70
67196;DHT22;54122;53.538;49.366;2023-10-19T11:56:10;10.60;57.80
67196;DHT22;54122;53.538;49.366;2023-10-19T11:58:41;10.50;57.90
67196;DHT22;54122;53.538;49.366;2023-10-19T12:01:09;10.50;57.80
67196;DHT22;54122;53.538;49.366;2023-10-19T12:03:39;10.40;57.90
67196;DHT22;54122;53.538;49.366;2023-10-19T12:06:07;10.40;58.20
67196;DHT22;54122;53.538;49.366;2023-10-19T12:08:34;10.40;58.40
67196;DHT22;54122;53.538;49.366;2023-10-19T12:11:03;10.30;58.40
67196;DHT22;54122;53.538;49.366;2023-10-19T12:13:49;10.30;58.60
67196;DHT22;54122;53.538;49.366;2023-10-19T12:16:16;10.30;58.50
67196;DHT22;54122;53.538;49.366;2023-10-19T12:18:43;10.30;58.70
67196;DHT22;54122;53.538;49.366;2023-10-19T12:21:10;10.30;58.60
67196;DHT22;54122;53.538;49.366;2023-10-19T12:23:44;10.20;58.60
67196;DHT22;54122;53.538;49.366;2023-10-19T12:26:11;10.20;58.70
67196;DHT22;54122;53.538;49.366;2023-10-19T12:28:41;10.10;59.00
67196;DHT22;54122;53.538;49.366;2023-10-19T12:31:08;10.10;59.30
67196;DHT22;54122;53.538;49.366;2023-10-19T12:33:37;10.00;59.40
67196;DHT22;54122;53.538;49.366;2023-10-19T12:36:05;10.00;59.70
67196;DHT22;54122;53.538;49.366;2023-10-19T12:38:50;10.00;60.00
67196;DHT22;54122;53.538;49.366;2023-10-19T12:41:18;9.90;60.00
67196;DHT22;54122;53.538;49.366;2023-10-19T12:43:45;9.80;60.20
67196;DHT22;54122;53.538;49.366;2023-10-19T12:46:14;9.80;60.20
67196;DHT22;54122;53.538;49.366;2023-10-19T12:48:44;9.80;60.20
67196;DHT22;54122;53.538;49.366;2023-10-19T12:51:13;9.80;60.20
67196;DHT22;54122;53.538;49.366;2023-10-19T12:53:40;9.70;60.30
67196;DHT22;54122;53.538;49.366;2023-10-19T12:56:07;9.70;60.40
67196;DHT22;54122;53.538;49.366;2023-10-19T12:58:37;9.70;60.40
67196;DHT22;54122;53.538;49.366;2023-10-19T13:01:04;9.70;60.50
67196;DHT22;54122;53.538;49.366;2023-10-19T13:03:31;9.60;60.60
67196;DHT22;54122;53.538;49.366;2023-10-19T13:05:58;9.60;60.80
67196;DHT22;54122;53.538;49.366;2023-10-19T13:08:25;9.60;61.10
67196;DHT22;54122;53.538;49.366;2023-10-19T13:10:54;9.50;61.20
67196;DHT22;54122;53.538;49.366;2023-10-19T13:13:22;9.40;61.30
67196;DHT22;54122;53.538;49.366;2023-10-19T13:15:50;9.40;61.50
67196;DHT22;54122;53.538;49.366;2023-10-19T13:18:16;9.40;61.50
67196;DHT22;54122;53.538;49.366;2023-10-19T13:20:47;9.30;61.40
67196;DHT22;54122;53.538;49.366;2023-10-19T13:23:15;9.30;61.50
67196;DHT22;54122;53.538;49.366;2023-10-19T13:25:48;9.30;61.50
67196;DHT22;54122;53.538;49.366;2023-10-19T13:28:23;9.20;61.20
67196;DHT22;54122;53.538;49.366;2023-10-19T13:30:51;9.20;61.10
67196;DHT22;54122;53.538;49.366;2023-10-19T13:33:19;9.20;61.30
67196;DHT22;54122;53.538;49.366;2023-10-19T13:35:50;9.20;61.30
67196;DHT22;54122;53.538;49.366;2023-10-19T13:38:18;9.10;61.40
67196;DHT22;54122;53.538;49.366;2023-10-19T13:40:46;9.10;61.40
67196;DHT22;54122;53.538;49.366;2023-10-19T13:43:13;9.10;61.40
67196;DHT22;54122;53.538;49.366;2023-10-19T13:45:40;9.10;61.50
67196;DHT22;54122;53.538;49.366;2023-10-19T13:48:09;9.10;61.50
67196;DHT22;54122;53.538;49.366;2023-10-19T13:50:40;9.10;61.40
67196;DHT22;54122;53.538;49.366;2023-10-19T13:53:06;9.10;61.50
67196;DHT22;54122;53.538;49.366;2023-10-19T13:55:34;9.10;61.40
67196;DHT22;54122;53.538;49.366;2023-10-19T13:58:02;9.10;61.40
67196;DHT22;54122;53.538;49.366;2023-10-19T14:00:29;9.10;61.30
67196;DHT22;54122;53.538;49.366;2023-10-19T14:02:57;9.10;61.40
67196;DHT22;54122;53.538;49.366;2023-10-19T14:05:25;9.10;61.50
67196;DHT22;54122;53.538;49.366;2023-10-19T14:07:51;9.00;61.50
67196;DHT22;54122;53.538;49.366;2023-10-19T14:10:18;9.00;61.60
67196;DHT22;54122;53.538;49.366;2023-10-19T14:12:49;9.00;61.70
67196;DHT22;54122;53.538;49.366;2023-10-19T14:15:16;9.00;61.70
67196;DHT22;54122;53.538;49.366;2023-10-19T14:17:47;9.00;61.70
67196;DHT22;54122;53.538;49.366;2023-10-19T14:20:15;9.00;61.30
67196;DHT22;54122;53.538;49.366;2023-10-19T14:22:43;9.00;60.80
67196;DHT22;54122;53.538;49.366;2023-10-19T14:25:11;9.00;60.50
67196;DHT22;54122;53.538;49.366;2023-10-19T14:27:41;9.00;60.50
67196;DHT22;54122;53.538;49.366;2023-10-19T14:30:09;9.00;60.20
67196;DHT22;54122;53.538;49.366;2023-10-19T14:32:42;9.00;60.00
67196;DHT22;54122;53.538;49.366;2023-10-19T14:35:13;9.00;59.50
67196;DHT22;54122;53.538;49.366;2023-10-19T14:37:42;9.00;59.40
67196;DHT22;54122;53.538;49.366;2023-10-19T14:40:10;9.00;58.40
67196;DHT22;54122;53.538;49.366;2023-10-19T14:42:46;9.10;57.90
67196;DHT22;54122;53.538;49.366;2023-10-19T14:45:16;9.10;57.40
67196;DHT22;54122;53.538;49.366;2023-10-19T14:47:47;9.10;57.30
67196;DHT22;54122;53.538;49.366;2023-10-19T14:50:15;9.10;57.40
67196;DHT22;54122;53.538;49.366;2023-10-19T14:52:45;9.10;57.20
67196;DHT22;54122;53.538;49.366;2023-10-19T14:55:12;9.10;57.10
67196;DHT22;54122;53.538;49.366;2023-10-19T14:57:41;9.10;56.80
67196;DHT22;54122;53.538;49.366;2023-10-19T15:00:09;9.10;56.50
67196;DHT22;54122;53.538;49.366;2023-10-19T15:02:50;9.10;56.10
67196;DHT22;54122;53.538;49.366;2023-10-19T15:05:17;9.10;55.90
67196;DHT22;54122;53.538;49.366;2023-10-19T15:07:46;9.10;55.80
67196;DHT22;54122;53.538;49.366;2023-10-19T15:10:18;9.10;55.90
67196;DHT22;54122;53.538;49.366;2023-10-19T15:12:46;9.10;56.00
67196;DHT22;54122;53.538;49.366;2023-10-19T15:15:12;9.10;56.10
67196;DHT22;54122;53.538;49.366;2023-10-19T15:17:40;9.00;55.90
67196;DHT22;54122;53.538;49.366;2023-10-19T15:20:09;9.00;55.90
67196;DHT22;54122;53.538;49.366;2023-10-19T15:22:37;9.00;55.80
67196;DHT22;54122;53.538;49.366;2023-10-19T15:25:07;9.10;55.80
67196;DHT22;54122;53.538;49.366;2023-10-19T15:27:37;9.10;55.70
67196;DHT22;54122;53.538;49.366;2023-10-19T15:30:05;9.10;55.40
67196;DHT22;54122;53.538;49.366;2023-10-19T15:32:35;9.20;55.10
67196;DHT22;54122;53.538;49.366;2023-10-19T15:35:02;9.20;55.00
67196;DHT22;54122;53.538;49.366;2023-10-19T15:37:29;9.20;54.60
67196;DHT22;54122;53.538;49.366;2023-10-19T15:39:56;9.20;54.60
67196;DHT22;54122;53.538;49.366;2023-10-19T15:42:23;9.20;54.60
67196;DHT22;54122;53.538;49.366;2023-10-19T15:44:52;9.20;54.80
67196;DHT22;54122;53.538;49.366;2023-10-19T15:47:19;9.10;56.20
67196;DHT22;54122;53.538;49.366;2023-10-19T15:49:47;8.90;55.10
67196;DHT22;54122;53.538;49.366;2023-10-19T15:52:21;8.80;55.60